sensor_id;sensor_type;location;lat;lon;timestamp;P1;durP1;ratioP1;P2;durP2;ratioP2
39518;SDS011;25200;53.394;10.414;2023-07-31T00:00:46;3.65;;;1.58;;
39518;SDS011;25200;53.394;10.414;2023-07-31T00:03:11;5.85;;;1.65;;
39518;SDS011;25200;53.394;10.414;2023-07-31T00:05:37;4.18;;;1.33;;
39518;SDS011;25200;53.394;10.414;2023-07-31T00:08:02;3.83;;;1.60;;
39518;SDS011;25200;53.394;10.414;2023-07-31T00:10:28;5.10;;;1.70;;
39518;SDS011;25200;53.394;10.414;2023-07-31T00:12:54;3.05;;;1.38;;
39518;SDS011;25200;53.394;10.414;2023-07-31T00:15:19;3.47;;;1.50;;
39518;SDS011;25200;53.394;10.414;2023-07-31T00:17:45;3.03;;;1.23;;
39518;SDS011;25200;53.394;10.414;2023-07-31T00:20:11;5.28;;;1.88;;
39518;SDS011;25200;53.394;10.414;2023-07-31T00:22:36;4.93;;;1.50;;
39518;SDS011;25200;53.394;10.414;2023-07-31T00:25:02;4.60;;;1.88;;
39518;SDS011;25200;53.394;10.414;2023-07-31T00:27:28;4.22;;;1.67;;
39518;SDS011;25200;53.394;10.414;2023-07-31T00:29:53;5.38;;;1.35;;
39518;SDS011;25200;53.394;10.414;2023-07-31T00:32:19;4.82;;;1.60;;
39518;SDS011;25200;53.394;10.414;2023-07-31T00:34:45;4.03;;;1.52;;
39518;SDS011;25200;53.394;10.414;2023-07-31T00:37:10;5.32;;;1.45;;
39518;SDS011;25200;53.394;10.414;2023-07-31T00:39:36;4.35;;;1.50;;
39518;SDS011;25200;53.394;10.414;2023-07-31T00:42:01;3.47;;;1.40;;
39518;SDS011;25200;53.394;10.414;2023-07-31T00:44:27;3.70;;;1.48;;
39518;SDS011;25200;53.394;10.414;2023-07-31T00:46:53;7.65;;;1.90;;
39518;SDS011;25200;53.394;10.414;2023-07-31T00:49:21;6.63;;;1.60;;
39518;SDS011;25200;53.394;10.414;2023-07-31T00:51:47;6.55;;;1.45;;
39518;SDS011;25200;53.394;10.414;2023-07-31T00:54:13;7.70;;;1.90;;
39518;SDS011;25200;53.394;10.414;2023-07-31T00:56:39;5.93;;;1.42;;
39518;SDS011;25200;53.394;10.414;2023-07-31T00:59:06;4.60;;;1.90;;
39518;SDS011;25200;53.394;10.414;2023-07-31T01:01:31;2.72;;;1.50;;
39518;SDS011;25200;53.394;10.414;2023-07-31T01:03:57;4.45;;;1.50;;
39518;SDS011;25200;53.394;10.414;2023-07-31T01:09:43;2.88;;;1.67;;
39518;SDS011;25200;53.394;10.414;2023-07-31T01:12:14;5.22;;;1.80;;
39518;SDS011;25200;53.394;10.414;2023-07-31T01:17:26;5.47;;;1.60;;
39518;SDS011;25200;53.394;10.414;2023-07-31T01:19:52;3.50;;;1.60;;
39518;SDS011;25200;53.394;10.414;2023-07-31T01:27:37;3.75;;;1.70;;
39518;SDS011;25200;53.394;10.414;2023-07-31T01:30:14;7.85;;;1.80;;
39518;SDS011;25200;53.394;10.414;2023-07-31T01:32:43;4.32;;;1.67;;
39518;SDS011;25200;53.394;10.414;2023-07-31T01:35:11;4.68;;;1.70;;
39518;SDS011;25200;53.394;10.414;2023-07-31T01:37:37;10.55;;;1.77;;
39518;SDS011;25200;53.394;10.414;2023-07-31T01:40:03;4.20;;;1.65;;
39518;SDS011;25200;53.394;10.414;2023-07-31T01:42:30;5.60;;;1.77;;
39518;SDS011;25200;53.394;10.414;2023-07-31T01:44:55;5.63;;;2.00;;
39518;SDS011;25200;53.394;10.414;2023-07-31T01:47:21;4.22;;;1.98;;
39518;SDS011;25200;53.394;10.414;2023-07-31T01:49:48;6.15;;;1.65;;
39518;SDS011;25200;53.394;10.414;2023-07-31T01:52:14;6.05;;;1.85;;
39518;SDS011;25200;53.394;10.414;2023-07-31T01:54:39;6.75;;;1.92;;
39518;SDS011;25200;53.394;10.414;2023-07-31T01:57:05;6.00;;;1.98;;
39518;SDS011;25200;53.394;10.414;2023-07-31T01:59:31;6.40;;;2.05;;
39518;SDS011;25200;53.394;10.414;2023-07-31T02:01:57;7.18;;;1.95;;
39518;SDS011;25200;53.394;10.414;2023-07-31T02:04:22;6.97;;;2.13;;
39518;SDS011;25200;53.394;10.414;2023-07-31T02:06:48;7.40;;;2.22;;
39518;SDS011;25200;53.394;10.414;2023-07-31T02:09:14;5.68;;;2.08;;
39518;SDS011;25200;53.394;10.414;2023-07-31T02:11:39;6.20;;;2.08;;
39518;SDS011;25200;53.394;10.414;2023-07-31T02:14:05;5.50;;;2.10;;
39518;SDS011;25200;53.394;10.414;2023-07-31T02:16:30;7.80;;;2.03;;
39518;SDS011;25200;53.394;10.414;2023-07-31T02:18:56;7.15;;;2.03;;
39518;SDS011;25200;53.394;10.414;2023-07-31T02:21:22;6.38;;;2.30;;
39518;SDS011;25200;53.394;10.414;2023-07-31T02:23:47;7.07;;;2.20;;
39518;SDS011;25200;53.394;10.414;2023-07-31T02:26:13;6.93;;;2.30;;
39518;SDS011;25200;53.394;10.414;2023-07-31T02:28:38;7.53;;;2.30;;
39518;SDS011;25200;53.394;10.414;2023-07-31T02:31:04;4.90;;;2.08;;
39518;SDS011;25200;53.394;10.414;2023-07-31T02:33:30;9.00;;;3.22;;
39518;SDS011;25200;53.394;10.414;2023-07-31T02:35:55;5.30;;;2.38;;
39518;SDS011;25200;53.394;10.414;2023-07-31T02:38:21;6.25;;;2.40;;
39518;SDS011;25200;53.394;10.414;2023-07-31T02:40:46;5.55;;;1.85;;
39518;SDS011;25200;53.394;10.414;2023-07-31T02:43:13;4.00;;;1.83;;
39518;SDS011;25200;53.394;10.414;2023-07-31T02:45:38;8.40;;;2.53;;
39518;SDS011;25200;53.394;10.414;2023-07-31T02:48:04;5.03;;;2.20;;
39518;SDS011;25200;53.394;10.414;2023-07-31T02:50:30;5.53;;;2.50;;
39518;SDS011;25200;53.394;10.414;2023-07-31T02:52:57;7.13;;;2.22;;
39518;SDS011;25200;53.394;10.414;2023-07-31T02:55:22;6.30;;;2.35;;
39518;SDS011;25200;53.394;10.414;2023-07-31T02:57:48;5.40;;;2.17;;
39518;SDS011;25200;53.394;10.414;2023-07-31T03:00:14;8.10;;;2.28;;
39518;SDS011;25200;53.394;10.414;2023-07-31T03:02:39;6.53;;;2.50;;
39518;SDS011;25200;53.394;10.414;2023-07-31T03:05:05;6.10;;;2.30;;
39518;SDS011;25200;53.394;10.414;2023-07-31T03:07:31;4.28;;;2.38;;
39518;SDS011;25200;53.394;10.414;2023-07-31T03:09:56;7.22;;;2.60;;
39518;SDS011;25200;53.394;10.414;2023-07-31T03:12:23;7.55;;;2.95;;
39518;SDS011;25200;53.394;10.414;2023-07-31T03:14:49;8.02;;;2.40;;
39518;SDS011;25200;53.394;10.414;2023-07-31T03:17:14;9.25;;;2.63;;
39518;SDS011;25200;53.394;10.414;2023-07-31T03:19:40;6.35;;;2.92;;
39518;SDS011;25200;53.394;10.414;2023-07-31T03:22:06;9.63;;;2.88;;
39518;SDS011;25200;53.394;10.414;2023-07-31T03:24:31;6.68;;;3.17;;
39518;SDS011;25200;53.394;10.414;2023-07-31T03:26:57;9.98;;;3.78;;
39518;SDS011;25200;53.394;10.414;2023-07-31T03:29:22;6.80;;;3.50;;
39518;SDS011;25200;53.394;10.414;2023-07-31T03:31:48;6.95;;;3.38;;
39518;SDS011;25200;53.394;10.414;2023-07-31T03:34:14;6.78;;;3.47;;
39518;SDS011;25200;53.394;10.414;2023-07-31T03:36:39;7.95;;;3.70;;
39518;SDS011;25200;53.394;10.414;2023-07-31T03:39:05;6.95;;;3.83;;
39518;SDS011;25200;53.394;10.414;2023-07-31T03:41:30;7.43;;;3.67;;
39518;SDS011;25200;53.394;10.414;2023-07-31T03:43:56;6.50;;;3.70;;
39518;SDS011;25200;53.394;10.414;2023-07-31T03:46:22;9.05;;;4.00;;
39518;SDS011;25200;53.394;10.414;2023-07-31T03:48:49;7.18;;;3.80;;
39518;SDS011;25200;53.394;10.414;2023-07-31T03:51:15;7.55;;;3.88;;
39518;SDS011;25200;53.394;10.414;2023-07-31T03:53:41;11.43;;;4.20;;
39518;SDS011;25200;53.394;10.414;2023-07-31T03:56:07;6.57;;;3.88;;
39518;SDS011;25200;53.394;10.414;2023-07-31T03:58:33;8.00;;;4.40;;
39518;SDS011;25200;53.394;10.414;2023-07-31T04:01:00;7.00;;;4.28;;
39518;SDS011;25200;53.394;10.414;2023-07-31T04:03:25;9.10;;;3.97;;
39518;SDS011;25200;53.394;10.414;2023-07-31T04:05:51;6.80;;;3.80;;
39518;SDS011;25200;53.394;10.414;2023-07-31T04:08:18;8.23;;;4.47;;
39518;SDS011;25200;53.394;10.414;2023-07-31T04:10:44;8.60;;;3.95;;
39518;SDS011;25200;53.394;10.414;2023-07-31T04:13:10;10.32;;;4.10;;
39518;SDS011;25200;53.394;10.414;2023-07-31T04:15:35;6.03;;;3.80;;
39518;SDS011;25200;53.394;10.414;2023-07-31T04:18:01;6.95;;;3.90;;
39518;SDS011;25200;53.394;10.414;2023-07-31T04:20:26;5.82;;;3.60;;
39518;SDS011;25200;53.394;10.414;2023-07-31T04:22:52;7.00;;;3.95;;
39518;SDS011;25200;53.394;10.414;2023-07-31T04:25:18;7.32;;;4.07;;
39518;SDS011;25200;53.394;10.414;2023-07-31T04:27:43;8.00;;;3.90;;
39518;SDS011;25200;53.394;10.414;2023-07-31T04:30:09;8.40;;;4.03;;
39518;SDS011;25200;53.394;10.414;2023-07-31T04:32:35;6.15;;;4.00;;
39518;SDS011;25200;53.394;10.414;2023-07-31T04:35:01;6.75;;;3.78;;
39518;SDS011;25200;53.394;10.414;2023-07-31T04:37:27;7.43;;;4.05;;
39518;SDS011;25200;53.394;10.414;2023-07-31T04:39:53;7.95;;;4.22;;
39518;SDS011;25200;53.394;10.414;2023-07-31T04:42:18;7.13;;;4.30;;
39518;SDS011;25200;53.394;10.414;2023-07-31T04:44:44;6.53;;;4.00;;
39518;SDS011;25200;53.394;10.414;2023-07-31T04:47:10;6.93;;;3.70;;
39518;SDS011;25200;53.394;10.414;2023-07-31T04:49:35;7.30;;;4.32;;
39518;SDS011;25200;53.394;10.414;2023-07-31T04:52:03;8.48;;;4.05;;
39518;SDS011;25200;53.394;10.414;2023-07-31T04:54:31;7.75;;;3.90;;
39518;SDS011;25200;53.394;10.414;2023-07-31T04:57:02;6.18;;;3.88;;
39518;SDS011;25200;53.394;10.414;2023-07-31T04:59:32;6.82;;;3.75;;
39518;SDS011;25200;53.394;10.414;2023-07-31T05:01:58;8.20;;;3.53;;
39518;SDS011;25200;53.394;10.414;2023-07-31T05:04:33;9.85;;;4.32;;
39518;SDS011;25200;53.394;10.414;2023-07-31T05:07:04;9.48;;;3.80;;
39518;SDS011;25200;53.394;10.414;2023-07-31T05:09:30;7.40;;;3.67;;
39518;SDS011;25200;53.394;10.414;2023-07-31T05:11:56;6.30;;;3.78;;
39518;SDS011;25200;53.394;10.414;2023-07-31T05:14:23;6.85;;;4.03;;
39518;SDS011;25200;53.394;10.414;2023-07-31T05:16:56;8.07;;;3.80;;
39518;SDS011;25200;53.394;10.414;2023-07-31T05:19:29;7.22;;;3.70;;
39518;SDS011;25200;53.394;10.414;2023-07-31T05:21:59;6.75;;;3.80;;
39518;SDS011;25200;53.394;10.414;2023-07-31T05:24:29;6.43;;;3.70;;
39518;SDS011;25200;53.394;10.414;2023-07-31T05:27:17;5.50;;;3.63;;
39518;SDS011;25200;53.394;10.414;2023-07-31T05:29:46;5.65;;;3.17;;
39518;SDS011;25200;53.394;10.414;2023-07-31T05:32:18;6.15;;;3.17;;
39518;SDS011;25200;53.394;10.414;2023-07-31T05:34:55;6.95;;;3.55;;
39518;SDS011;25200;53.394;10.414;2023-07-31T05:37:21;6.88;;;3.97;;
39518;SDS011;25200;53.394;10.414;2023-07-31T05:39:49;7.55;;;3.58;;
39518;SDS011;25200;53.394;10.414;2023-07-31T05:42:26;6.93;;;3.53;;
39518;SDS011;25200;53.394;10.414;2023-07-31T05:44:52;6.38;;;3.50;;
39518;SDS011;25200;53.394;10.414;2023-07-31T05:47:19;6.57;;;3.75;;
39518;SDS011;25200;53.394;10.414;2023-07-31T05:49:49;6.68;;;3.90;;
39518;SDS011;25200;53.394;10.414;2023-07-31T05:52:19;6.43;;;3.20;;
39518;SDS011;25200;53.394;10.414;2023-07-31T05:54:47;7.45;;;3.25;;
39518;SDS011;25200;53.394;10.414;2023-07-31T05:57:15;5.05;;;3.08;;
39518;SDS011;25200;53.394;10.414;2023-07-31T05:59:42;8.38;;;3.67;;
39518;SDS011;25200;53.394;10.414;2023-07-31T06:02:11;6.20;;;3.35;;
39518;SDS011;25200;53.394;10.414;2023-07-31T06:04:39;8.02;;;3.22;;
39518;SDS011;25200;53.394;10.414;2023-07-31T06:07:05;5.70;;;3.20;;
39518;SDS011;25200;53.394;10.414;2023-07-31T06:09:35;5.40;;;3.00;;
39518;SDS011;25200;53.394;10.414;2023-07-31T06:12:07;8.93;;;3.45;;
39518;SDS011;25200;53.394;10.414;2023-07-31T06:14:34;5.05;;;2.92;;
39518;SDS011;25200;53.394;10.414;2023-07-31T06:17:00;4.65;;;2.65;;
39518;SDS011;25200;53.394;10.414;2023-07-31T06:19:28;4.93;;;2.80;;
39518;SDS011;25200;53.394;10.414;2023-07-31T06:22:00;5.57;;;2.90;;
39518;SDS011;25200;53.394;10.414;2023-07-31T06:24:28;5.18;;;3.03;;
39518;SDS011;25200;53.394;10.414;2023-07-31T06:27:01;4.70;;;2.90;;
39518;SDS011;25200;53.394;10.414;2023-07-31T06:29:29;4.47;;;2.67;;
39518;SDS011;25200;53.394;10.414;2023-07-31T06:31:58;5.13;;;2.70;;
39518;SDS011;25200;53.394;10.414;2023-07-31T06:34:25;4.70;;;2.80;;
39518;SDS011;25200;53.394;10.414;2023-07-31T06:36:55;6.75;;;2.83;;
39518;SDS011;25200;53.394;10.414;2023-07-31T06:39:23;6.43;;;2.95;;
39518;SDS011;25200;53.394;10.414;2023-07-31T06:41:49;4.72;;;2.53;;
39518;SDS011;25200;53.394;10.414;2023-07-31T06:44:21;4.75;;;2.42;;
39518;SDS011;25200;53.394;10.414;2023-07-31T06:46:55;5.32;;;2.80;;
39518;SDS011;25200;53.394;10.414;2023-07-31T06:49:45;5.60;;;2.60;;
39518;SDS011;25200;53.394;10.414;2023-07-31T06:52:13;5.57;;;2.40;;
39518;SDS011;25200;53.394;10.414;2023-07-31T07:00:15;4.35;;;2.33;;
39518;SDS011;25200;53.394;10.414;2023-07-31T07:02:45;4.47;;;2.38;;
39518;SDS011;25200;53.394;10.414;2023-07-31T07:05:17;4.38;;;2.30;;
39518;SDS011;25200;53.394;10.414;2023-07-31T07:07:48;4.20;;;2.35;;
39518;SDS011;25200;53.394;10.414;2023-07-31T07:10:22;4.95;;;2.38;;
39518;SDS011;25200;53.394;10.414;2023-07-31T07:12:54;4.25;;;2.08;;
39518;SDS011;25200;53.394;10.414;2023-07-31T07:15:23;4.28;;;2.22;;
39518;SDS011;25200;53.394;10.414;2023-07-31T07:17:49;4.22;;;2.17;;
39518;SDS011;25200;53.394;10.414;2023-07-31T07:20:15;4.13;;;2.30;;
39518;SDS011;25200;53.394;10.414;2023-07-31T07:22:41;4.22;;;2.20;;
39518;SDS011;25200;53.394;10.414;2023-07-31T07:25:09;4.35;;;2.30;;
39518;SDS011;25200;53.394;10.414;2023-07-31T07:27:41;3.28;;;1.75;;
39518;SDS011;25200;53.394;10.414;2023-07-31T07:30:08;6.05;;;2.10;;
39518;SDS011;25200;53.394;10.414;2023-07-31T07:32:37;3.58;;;1.88;;
39518;SDS011;25200;53.394;10.414;2023-07-31T07:35:05;4.15;;;1.80;;
39518;SDS011;25200;53.394;10.414;2023-07-31T07:37:32;2.47;;;1.45;;
39518;SDS011;25200;53.394;10.414;2023-07-31T07:39:58;2.80;;;1.55;;
39518;SDS011;25200;53.394;10.414;2023-07-31T07:42:31;2.90;;;1.65;;
39518;SDS011;25200;53.394;10.414;2023-07-31T07:45:01;2.72;;;1.50;;
39518;SDS011;25200;53.394;10.414;2023-07-31T07:47:28;3.13;;;1.60;;
39518;SDS011;25200;53.394;10.414;2023-07-31T07:49:54;3.70;;;1.80;;
39518;SDS011;25200;53.394;10.414;2023-07-31T07:52:23;2.35;;;1.60;;
39518;SDS011;25200;53.394;10.414;2023-07-31T07:54:49;2.35;;;1.40;;
39518;SDS011;25200;53.394;10.414;2023-07-31T07:57:19;2.42;;;1.42;;
39518;SDS011;25200;53.394;10.414;2023-07-31T07:59:49;3.20;;;1.70;;
39518;SDS011;25200;53.394;10.414;2023-07-31T08:02:16;2.40;;;1.30;;
39518;SDS011;25200;53.394;10.414;2023-07-31T08:04:51;3.40;;;1.50;;
39518;SDS011;25200;53.394;10.414;2023-07-31T08:07:22;2.28;;;1.42;;
39518;SDS011;25200;53.394;10.414;2023-07-31T08:09:48;2.85;;;1.60;;
39518;SDS011;25200;53.394;10.414;2023-07-31T08:12:16;4.45;;;1.65;;
39518;SDS011;25200;53.394;10.414;2023-07-31T08:14:46;2.90;;;1.50;;
39518;SDS011;25200;53.394;10.414;2023-07-31T08:17:12;3.05;;;1.42;;
39518;SDS011;25200;53.394;10.414;2023-07-31T08:19:41;3.42;;;1.35;;
39518;SDS011;25200;53.394;10.414;2023-07-31T08:22:14;4.50;;;1.45;;
39518;SDS011;25200;53.394;10.414;2023-07-31T08:24:41;2.08;;;1.17;;
39518;SDS011;25200;53.394;10.414;2023-07-31T08:27:09;2.10;;;1.10;;
39518;SDS011;25200;53.394;10.414;2023-07-31T08:29:36;2.20;;;1.00;;
39518;SDS011;25200;53.394;10.414;2023-07-31T08:32:04;5.53;;;1.45;;
39518;SDS011;25200;53.394;10.414;2023-07-31T08:34:33;2.13;;;0.93;;
39518;SDS011;25200;53.394;10.414;2023-07-31T08:36:59;1.70;;;1.00;;
39518;SDS011;25200;53.394;10.414;2023-07-31T08:39:28;1.45;;;0.93;;
39518;SDS011;25200;53.394;10.414;2023-07-31T08:42:00;1.55;;;0.93;;
39518;SDS011;25200;53.394;10.414;2023-07-31T08:44:26;1.83;;;1.00;;
39518;SDS011;25200;53.394;10.414;2023-07-31T08:46:52;1.77;;;1.08;;
39518;SDS011;25200;53.394;10.414;2023-07-31T08:49:19;2.65;;;1.25;;
39518;SDS011;25200;53.394;10.414;2023-07-31T08:51:46;1.80;;;0.98;;
39518;SDS011;25200;53.394;10.414;2023-07-31T08:54:15;2.50;;;1.10;;
39518;SDS011;25200;53.394;10.414;2023-07-31T08:56:41;5.35;;;0.90;;
39518;SDS011;25200;53.394;10.414;2023-07-31T08:59:07;1.10;;;0.70;;
39518;SDS011;25200;53.394;10.414;2023-07-31T09:01:36;1.75;;;0.82;;
39518;SDS011;25200;53.394;10.414;2023-07-31T09:04:07;1.73;;;1.05;;
39518;SDS011;25200;53.394;10.414;2023-07-31T09:06:35;2.33;;;0.93;;
39518;SDS011;25200;53.394;10.414;2023-07-31T09:09:02;1.42;;;0.70;;
39518;SDS011;25200;53.394;10.414;2023-07-31T09:11:28;1.35;;;0.60;;
39518;SDS011;25200;53.394;10.414;2023-07-31T09:13:55;1.40;;;0.82;;
39518;SDS011;25200;53.394;10.414;2023-07-31T09:16:29;1.20;;;0.60;;
39518;SDS011;25200;53.394;10.414;2023-07-31T09:18:57;1.17;;;0.60;;
39518;SDS011;25200;53.394;10.414;2023-07-31T09:21:23;0.95;;;0.63;;
39518;SDS011;25200;53.394;10.414;2023-07-31T09:23:50;1.65;;;0.65;;
39518;SDS011;25200;53.394;10.414;2023-07-31T09:26:28;1.25;;;0.60;;
39518;SDS011;25200;53.394;10.414;2023-07-31T09:28:55;0.80;;;0.60;;
39518;SDS011;25200;53.394;10.414;2023-07-31T09:34:07;1.55;;;0.70;;
39518;SDS011;25200;53.394;10.414;2023-07-31T09:36:39;0.93;;;0.35;;
39518;SDS011;25200;53.394;10.414;2023-07-31T09:39:05;1.77;;;0.80;;
39518;SDS011;25200;53.394;10.414;2023-07-31T09:41:38;1.90;;;0.68;;
39518;SDS011;25200;53.394;10.414;2023-07-31T09:44:05;1.27;;;0.77;;
39518;SDS011;25200;53.394;10.414;2023-07-31T09:46:30;0.70;;;0.52;;
39518;SDS011;25200;53.394;10.414;2023-07-31T09:49:03;1.48;;;0.95;;
39518;SDS011;25200;53.394;10.414;2023-07-31T09:51:34;2.55;;;1.10;;
39518;SDS011;25200;53.394;10.414;2023-07-31T09:56:45;3.38;;;1.50;;
39518;SDS011;25200;53.394;10.414;2023-07-31T09:59:13;3.88;;;1.65;;
39518;SDS011;25200;53.394;10.414;2023-07-31T10:01:40;4.18;;;1.95;;
39518;SDS011;25200;53.394;10.414;2023-07-31T10:04:08;5.30;;;2.67;;
39518;SDS011;25200;53.394;10.414;2023-07-31T10:06:35;6.55;;;2.58;;
39518;SDS011;25200;53.394;10.414;2023-07-31T10:09:11;4.88;;;2.00;;
39518;SDS011;25200;53.394;10.414;2023-07-31T10:11:41;6.57;;;2.78;;
39518;SDS011;25200;53.394;10.414;2023-07-31T10:14:15;6.95;;;3.05;;
39518;SDS011;25200;53.394;10.414;2023-07-31T10:16:48;8.68;;;3.08;;
39518;SDS011;25200;53.394;10.414;2023-07-31T10:19:15;11.98;;;3.78;;
39518;SDS011;25200;53.394;10.414;2023-07-31T10:21:43;9.02;;;3.83;;
39518;SDS011;25200;53.394;10.414;2023-07-31T10:24:09;11.93;;;3.75;;
39518;SDS011;25200;53.394;10.414;2023-07-31T10:26:34;12.35;;;5.05;;
39518;SDS011;25200;53.394;10.414;2023-07-31T10:29:02;10.48;;;4.43;;
39518;SDS011;25200;53.394;10.414;2023-07-31T10:31:28;10.25;;;4.78;;
39518;SDS011;25200;53.394;10.414;2023-07-31T10:33:55;12.13;;;4.80;;
39518;SDS011;25200;53.394;10.414;2023-07-31T10:36:22;11.18;;;4.78;;
39518;SDS011;25200;53.394;10.414;2023-07-31T10:38:48;12.30;;;5.20;;
39518;SDS011;25200;53.394;10.414;2023-07-31T10:41:15;9.32;;;4.22;;
39518;SDS011;25200;53.394;10.414;2023-07-31T10:43:41;10.80;;;4.95;;
39518;SDS011;25200;53.394;10.414;2023-07-31T10:46:07;14.57;;;4.70;;
39518;SDS011;25200;53.394;10.414;2023-07-31T10:48:34;13.02;;;4.97;;
39518;SDS011;25200;53.394;10.414;2023-07-31T10:51:02;11.23;;;5.18;;
39518;SDS011;25200;53.394;10.414;2023-07-31T10:53:33;10.30;;;4.55;;
39518;SDS011;25200;53.394;10.414;2023-07-31T10:56:03;12.82;;;4.90;;
39518;SDS011;25200;53.394;10.414;2023-07-31T10:58:32;11.23;;;4.70;;
39518;SDS011;25200;53.394;10.414;2023-07-31T11:01:00;12.57;;;5.00;;
39518;SDS011;25200;53.394;10.414;2023-07-31T11:03:44;10.90;;;4.97;;
39518;SDS011;25200;53.394;10.414;2023-07-31T11:06:12;9.57;;;4.85;;
39518;SDS011;25200;53.394;10.414;2023-07-31T11:08:46;13.88;;;5.00;;
39518;SDS011;25200;53.394;10.414;2023-07-31T11:11:14;15.18;;;5.25;;
39518;SDS011;25200;53.394;10.414;2023-07-31T11:16:17;9.38;;;4.80;;
39518;SDS011;25200;53.394;10.414;2023-07-31T11:18:44;9.38;;;4.55;;
39518;SDS011;25200;53.394;10.414;2023-07-31T11:21:14;11.98;;;4.38;;
39518;SDS011;25200;53.394;10.414;2023-07-31T11:23:45;10.65;;;4.38;;
39518;SDS011;25200;53.394;10.414;2023-07-31T11:26:14;9.85;;;4.85;;
39518;SDS011;25200;53.394;10.414;2023-07-31T11:28:41;9.00;;;4.10;;
39518;SDS011;25200;53.394;10.414;2023-07-31T11:31:10;10.82;;;4.05;;
39518;SDS011;25200;53.394;10.414;2023-07-31T11:33:36;11.60;;;4.10;;
39518;SDS011;25200;53.394;10.414;2023-07-31T11:36:01;7.20;;;3.60;;
39518;SDS011;25200;53.394;10.414;2023-07-31T11:38:28;7.57;;;3.80;;
39518;SDS011;25200;53.394;10.414;2023-07-31T11:40:59;7.15;;;3.22;;
39518;SDS011;25200;53.394;10.414;2023-07-31T11:43:27;9.45;;;3.40;;
39518;SDS011;25200;53.394;10.414;2023-07-31T11:45:55;7.72;;;3.55;;
39518;SDS011;25200;53.394;10.414;2023-07-31T11:48:22;7.72;;;3.17;;
39518;SDS011;25200;53.394;10.414;2023-07-31T11:50:52;7.03;;;2.72;;
39518;SDS011;25200;53.394;10.414;2023-07-31T11:53:22;5.13;;;2.50;;
39518;SDS011;25200;53.394;10.414;2023-07-31T11:56:00;7.70;;;3.13;;
39518;SDS011;25200;53.394;10.414;2023-07-31T11:58:29;5.38;;;2.85;;
39518;SDS011;25200;53.394;10.414;2023-07-31T12:00:56;6.25;;;2.75;;
39518;SDS011;25200;53.394;10.414;2023-07-31T12:03:24;7.30;;;2.90;;
39518;SDS011;25200;53.394;10.414;2023-07-31T12:05:50;5.78;;;2.70;;
39518;SDS011;25200;53.394;10.414;2023-07-31T12:08:18;7.35;;;2.80;;
39518;SDS011;25200;53.394;10.414;2023-07-31T12:10:46;5.22;;;2.55;;
39518;SDS011;25200;53.394;10.414;2023-07-31T12:13:25;5.60;;;2.40;;
39518;SDS011;25200;53.394;10.414;2023-07-31T12:15:54;5.65;;;2.42;;
39518;SDS011;25200;53.394;10.414;2023-07-31T12:19:18;6.22;;;2.35;;
39518;SDS011;25200;53.394;10.414;2023-07-31T12:21:52;6.00;;;2.17;;
39518;SDS011;25200;53.394;10.414;2023-07-31T12:24:19;6.88;;;2.20;;
39518;SDS011;25200;53.394;10.414;2023-07-31T12:26:45;5.80;;;2.17;;
39518;SDS011;25200;53.394;10.414;2023-07-31T12:29:14;6.55;;;2.38;;
39518;SDS011;25200;53.394;10.414;2023-07-31T12:31:42;3.83;;;1.95;;
39518;SDS011;25200;53.394;10.414;2023-07-31T12:34:18;4.05;;;2.10;;
39518;SDS011;25200;53.394;10.414;2023-07-31T12:36:46;6.55;;;2.17;;
39518;SDS011;25200;53.394;10.414;2023-07-31T12:39:14;3.75;;;2.00;;
39518;SDS011;25200;53.394;10.414;2023-07-31T12:41:40;3.60;;;1.88;;
39518;SDS011;25200;53.394;10.414;2023-07-31T12:44:06;4.78;;;2.10;;
39518;SDS011;25200;53.394;10.414;2023-07-31T12:46:32;3.42;;;1.75;;
39518;SDS011;25200;53.394;10.414;2023-07-31T12:48:58;3.15;;;1.50;;
39518;SDS011;25200;53.394;10.414;2023-07-31T12:51:24;4.38;;;1.90;;
39518;SDS011;25200;53.394;10.414;2023-07-31T12:53:50;3.95;;;1.80;;
39518;SDS011;25200;53.394;10.414;2023-07-31T12:56:15;3.72;;;1.48;;
39518;SDS011;25200;53.394;10.414;2023-07-31T12:58:42;3.42;;;1.40;;
39518;SDS011;25200;53.394;10.414;2023-07-31T13:01:08;3.15;;;1.50;;
39518;SDS011;25200;53.394;10.414;2023-07-31T13:03:34;3.30;;;1.50;;
39518;SDS011;25200;53.394;10.414;2023-07-31T13:06:00;3.65;;;1.80;;
39518;SDS011;25200;53.394;10.414;2023-07-31T13:08:26;3.15;;;1.63;;
39518;SDS011;25200;53.394;10.414;2023-07-31T13:10:51;2.67;;;1.50;;
39518;SDS011;25200;53.394;10.414;2023-07-31T13:13:17;3.83;;;1.70;;
39518;SDS011;25200;53.394;10.414;2023-07-31T13:15:43;3.10;;;1.50;;
39518;SDS011;25200;53.394;10.414;2023-07-31T13:18:10;2.70;;;1.60;;
39518;SDS011;25200;53.394;10.414;2023-07-31T13:20:35;5.80;;;1.88;;
39518;SDS011;25200;53.394;10.414;2023-07-31T13:23:01;3.20;;;1.60;;
39518;SDS011;25200;53.394;10.414;2023-07-31T13:25:27;3.88;;;1.90;;
39518;SDS011;25200;53.394;10.414;2023-07-31T13:27:52;4.10;;;2.13;;
39518;SDS011;25200;53.394;10.414;2023-07-31T13:30:18;3.42;;;1.70;;
39518;SDS011;25200;53.394;10.414;2023-07-31T13:32:44;3.53;;;1.85;;
39518;SDS011;25200;53.394;10.414;2023-07-31T13:35:09;3.28;;;1.50;;
39518;SDS011;25200;53.394;10.414;2023-07-31T13:37:37;2.88;;;1.60;;
39518;SDS011;25200;53.394;10.414;2023-07-31T13:40:02;4.03;;;1.60;;
39518;SDS011;25200;53.394;10.414;2023-07-31T13:42:30;4.50;;;1.50;;
39518;SDS011;25200;53.394;10.414;2023-07-31T13:44:56;3.83;;;1.52;;
39518;SDS011;25200;53.394;10.414;2023-07-31T13:47:22;2.75;;;1.40;;
39518;SDS011;25200;53.394;10.414;2023-07-31T13:49:47;3.03;;;1.48;;
39518;SDS011;25200;53.394;10.414;2023-07-31T13:52:14;2.20;;;1.40;;
39518;SDS011;25200;53.394;10.414;2023-07-31T13:54:40;2.72;;;1.50;;
39518;SDS011;25200;53.394;10.414;2023-07-31T13:57:07;3.10;;;1.55;;
39518;SDS011;25200;53.394;10.414;2023-07-31T13:59:33;3.35;;;1.70;;
39518;SDS011;25200;53.394;10.414;2023-07-31T14:01:59;3.25;;;1.50;;
39518;SDS011;25200;53.394;10.414;2023-07-31T14:04:25;2.63;;;1.30;;
39518;SDS011;25200;53.394;10.414;2023-07-31T14:06:51;3.70;;;1.55;;
39518;SDS011;25200;53.394;10.414;2023-07-31T14:09:17;2.10;;;1.40;;
39518;SDS011;25200;53.394;10.414;2023-07-31T14:11:43;2.33;;;1.27;;
39518;SDS011;25200;53.394;10.414;2023-07-31T14:14:09;2.22;;;1.10;;
39518;SDS011;25200;53.394;10.414;2023-07-31T14:16:35;2.00;;;1.30;;
39518;SDS011;25200;53.394;10.414;2023-07-31T14:19:01;1.83;;;1.10;;
39518;SDS011;25200;53.394;10.414;2023-07-31T14:21:26;2.58;;;1.30;;
39518;SDS011;25200;53.394;10.414;2023-07-31T14:23:52;3.05;;;1.30;;
39518;SDS011;25200;53.394;10.414;2023-07-31T14:26:18;2.22;;;1.25;;
39518;SDS011;25200;53.394;10.414;2023-07-31T14:28:46;2.13;;;1.35;;
39518;SDS011;25200;53.394;10.414;2023-07-31T14:31:12;1.92;;;0.98;;
39518;SDS011;25200;53.394;10.414;2023-07-31T14:33:38;1.92;;;1.10;;
39518;SDS011;25200;53.394;10.414;2023-07-31T14:36:04;1.73;;;1.08;;
39518;SDS011;25200;53.394;10.414;2023-07-31T14:38:30;2.78;;;1.30;;
39518;SDS011;25200;53.394;10.414;2023-07-31T14:40:55;2.05;;;1.30;;
39518;SDS011;25200;53.394;10.414;2023-07-31T14:43:21;2.80;;;1.48;;
39518;SDS011;25200;53.394;10.414;2023-07-31T14:45:47;2.63;;;1.50;;
39518;SDS011;25200;53.394;10.414;2023-07-31T14:48:14;3.47;;;1.67;;
39518;SDS011;25200;53.394;10.414;2023-07-31T14:50:40;3.05;;;1.58;;
39518;SDS011;25200;53.394;10.414;2023-07-31T14:53:06;2.97;;;1.80;;
39518;SDS011;25200;53.394;10.414;2023-07-31T14:55:31;4.25;;;1.88;;
39518;SDS011;25200;53.394;10.414;2023-07-31T14:57:57;3.47;;;1.90;;
39518;SDS011;25200;53.394;10.414;2023-07-31T15:00:24;3.40;;;1.90;;